Time;durP1;ratioP1;P1;durP2;ratioP2;P2;SDS_P1;SDS_P2;PMS_P1;PMS_P2;Temp;Humidity;BMP_temperature;BMP_pressure;BME280_temperature;BME280_humidity;BME280_pressure;Samples;Min_cycle;Max_cycle;Signal;HPM_P1;HPM_P2
2022/08/12 00:43:14;;;;;;;6.20;4.13;;;;;;;16.59;100.00;91072.72;5010861;28;20578;-66
2022/08/12 00:48:25;;;;;;;4.30;3.25;;;;;;;16.45;100.00;91068.50;5011479;28;20040;-67
2022/08/12 00:50:53;;;;;;;3.35;2.92;;;;;;;16.46;100.00;91070.06;5011117;28;20030;-67
2022/08/12 00:53:20;;;;;;;3.78;3.20;;;;;;;16.48;100.00;91081.25;5010940;28;20030;-67
2022/08/12 00:55:45;;;;;;;5.85;3.22;;;;;;;16.51;100.00;91070.94;5010827;28;20046;-67
2022/08/12 00:58:16;;;;;;;4.63;3.60;;;;;;;16.41;100.00;91081.06;5011224;28;20042;-67
2022/08/12 01:00:43;;;;;;;4.43;4.03;;;;;;;16.37;100.00;91079.38;5010634;28;20030;-67
2022/08/12 01:03:12;;;;;;;5.15;3.60;;;;;;;16.34;100.00;91080.84;5011001;28;20029;-67
2022/08/12 01:13:52;;;;;;;3.97;3.15;;;;;;;16.50;100.00;91080.13;5011224;28;20041;-67
2022/08/12 01:16:21;;;;;;;6.80;3.40;;;;;;;16.55;100.00;91082.56;5010339;28;20040;-67
2022/08/12 01:18:48;;;;;;;4.53;3.90;;;;;;;16.54;100.00;91087.16;5010928;28;20032;-67
2022/08/12 01:21:26;;;;;;;5.25;4.38;;;;;;;16.57;100.00;91089.19;5010671;28;20084;-67
2022/08/12 01:24:22;;;;;;;5.72;3.95;;;;;;;16.61;100.00;91089.28;5010448;28;20022;-67
2022/08/12 01:26:53;;;;;;;4.32;3.38;;;;;;;16.61;100.00;91094.66;5010854;28;20038;-66
2022/08/12 01:29:25;;;;;;;4.32;3.30;;;;;;;16.66;100.00;91097.09;5010619;28;20029;-67
2022/08/12 01:31:53;;;;;;;4.97;3.80;;;;;;;16.73;100.00;91102.72;5010431;28;20030;-67
2022/08/12 01:34:27;;;;;;;3.65;3.22;;;;;;;16.66;100.00;91091.72;5011853;28;20113;-67
2022/08/12 01:36:57;;;;;;;4.50;3.25;;;;;;;16.68;100.00;91089.50;5014498;28;20484;-67
2022/08/12 01:39:32;;;;;;;4.72;3.20;;;;;;;16.67;100.00;91083.34;5013967;28;20037;-67
2022/08/12 01:42:07;;;;;;;6.88;3.75;;;;;;;16.56;100.00;91092.19;5014142;28;20057;-67
2022/08/12 01:44:34;;;;;;;5.15;3.85;;;;;;;16.50;100.00;91088.19;5013730;28;20037;-67
2022/08/12 01:47:19;;;;;;;5.35;4.25;;;;;;;16.34;100.00;91091.59;5014357;28;20045;-67
2022/08/12 01:50:04;;;;;;;6.32;3.80;;;;;;;16.30;100.00;91096.06;5014121;28;20026;-67
2022/08/12 01:52:40;;;;;;;6.45;3.95;;;;;;;16.23;100.00;91090.47;5013840;28;20072;-67
2022/08/12 01:55:06;;;;;;;5.28;3.92;;;;;;;16.23;100.00;91087.00;5014155;28;20034;-67
2022/08/12 01:57:43;;;;;;;5.03;4.13;;;;;;;16.27;100.00;91091.38;5013738;28;20030;-67
2022/08/12 02:00:12;;;;;;;4.65;3.78;;;;;;;16.22;100.00;91088.91;5013547;28;20129;-67
2022/08/12 02:02:46;;;;;;;6.72;4.03;;;;;;;16.18;100.00;91082.66;5013983;28;20037;-67
2022/08/12 02:11:24;;;;;;;6.35;4.13;;;;;;;16.33;100.00;91089.25;5013891;28;20041;-67
2022/08/12 02:14:19;;;;;;;5.68;4.13;;;;;;;16.33;100.00;91083.88;5014000;28;20484;-67
2022/08/12 02:17:06;;;;;;;8.60;4.22;;;;;;;16.35;100.00;91092.34;5013943;28;20141;-67
2022/08/12 02:20:01;;;;;;;6.00;4.38;;;;;;;16.33;100.00;91083.88;5013786;28;20061;-67
2022/08/12 02:22:36;;;;;;;7.30;4.00;;;;;;;16.32;100.00;91093.03;5013240;28;20106;-67
2022/08/12 02:25:12;;;;;;;5.68;4.10;;;;;;;16.32;100.00;91088.47;5013641;28;20486;-67
2022/08/12 02:27:45;;;;;;;6.15;3.90;;;;;;;16.15;100.00;91096.75;5013636;28;20097;-67
2022/08/12 02:30:13;;;;;;;;;;;;;;;16.15;100.00;91094.09;5013437;28;20030;-66
2022/08/12 02:32:41;;;;;;;6.30;3.95;;;;;;;16.11;100.00;91093.19;5013566;28;20371;-66
2022/08/12 02:35:13;;;;;;;4.57;3.63;;;;;;;16.09;100.00;91095.41;5013101;28;20026;-66
2022/08/12 02:37:41;;;;;;;7.07;4.55;;;;;;;16.11;100.00;91095.88;5012825;28;20061;-66
2022/08/12 02:40:09;;;;;;;6.30;4.38;;;;;;;16.13;100.00;91099.78;5013321;28;20180;-66
2022/08/12 02:42:35;;;;;;;5.50;4.18;;;;;;;16.06;100.00;91085.34;5013197;28;20095;-66
2022/08/12 02:45:06;;;;;;;5.18;3.88;;;;;;;16.15;100.00;91094.88;5012437;28;20038;-66
2022/08/12 02:47:39;;;;;;;5.05;3.92;;;;;;;16.18;100.00;91104.91;5012809;28;20105;-66
2022/08/12 02:50:05;;;;;;;5.70;4.22;;;;;;;16.13;100.00;91090.97;5013075;28;20037;-66
2022/08/12 02:52:33;;;;;;;5.30;4.20;;;;;;;16.18;100.00;91098.78;5012601;28;20091;-65
2022/08/12 02:55:06;;;;;;;6.90;4.53;;;;;;;16.19;100.00;91094.97;5013045;28;20036;-65
2022/08/12 02:57:33;;;;;;;7.32;4.35;;;;;;;16.17;100.00;91099.88;5013003;28;20047;-65
2022/08/12 03:00:02;;;;;;;8.93;5.80;;;;;;;16.23;100.00;91095.84;5012254;28;20400;-67
2022/08/12 03:02:30;;;;;;;6.30;4.75;;;;;;;16.11;100.00;91096.66;5013030;28;20068;-67
2022/08/12 03:04:57;;;;;;;6.07;5.07;;;;;;;16.17;100.00;91097.22;5013250;28;20037;-67
2022/08/12 03:07:22;;;;;;;5.25;4.28;;;;;;;16.20;100.00;91095.75;5012486;28;20393;-67
2022/08/12 03:09:51;;;;;;;5.93;4.30;;;;;;;16.21;100.00;91097.31;5012836;28;20045;-67
2022/08/12 03:12:19;;;;;;;6.85;4.43;;;;;;;16.23;100.00;91095.84;5012634;28;20025;-66
2022/08/12 03:14:45;;;;;;;5.40;4.45;;;;;;;16.20;100.00;91088.47;5012498;28;20723;-67
2022/08/12 03:17:29;;;;;;;5.05;4.18;;;;;;;16.21;100.00;91097.31;5012660;28;20026;-67
2022/08/12 03:19:56;;;;;;;5.65;3.60;;;;;;;16.14;100.00;91103.25;5012749;28;20030;-67
2022/08/12 03:22:23;;;;;;;5.18;3.67;;;;;;;16.13;100.00;91086.38;4994710;28;20492;-67
2022/08/12 03:24:50;;;;;;;5.63;4.18;;;;;;;16.17;100.00;91102.56;5012389;28;20034;-67
2022/08/12 03:27:16;;;;;;;4.78;3.80;;;;;;;16.21;100.00;91098.09;4994863;28;20048;-67
2022/08/12 03:29:47;;;;;;;7.68;3.85;;;;;;;16.27;100.00;91112.84;5012042;28;20026;-66
2022/08/12 03:32:14;;;;;;;6.55;4.07;;;;;;;16.30;100.00;91096.06;5012593;28;20022;-67
2022/08/12 03:34:41;;;;;;;4.90;3.55;;;;;;;16.36;100.00;91105.44;5012531;28;20061;-66
2022/08/12 03:37:09;;;;;;;6.32;4.10;;;;;;;16.40;100.00;91106.31;5011699;28;20125;-67
2022/08/12 03:42:26;;;;;;;4.72;3.58;;;;;;;16.54;100.00;91108.66;5016439;28;20045;-67
2022/08/12 04:01:56;;;;;;;5.88;4.38;;;;;;;16.30;100.00;91108.72;5031332;28;20059;-66
2022/08/12 04:04:33;;;;;;;7.13;4.90;;;;;;;16.36;100.00;91110.81;5031611;28;20026;-67
2022/08/12 04:07:02;;;;;;;6.05;4.13;;;;;;;16.43;100.00;91102.19;5031025;28;20088;-67
2022/08/12 04:09:28;;;;;;;5.47;4.22;;;;;;;16.46;100.00;91107.66;5031427;28;20518;-67
2022/08/12 04:14:39;;;;;;;5.25;4.10;;;;;;;16.43;100.00;91102.97;5031137;28;20129;-66
2022/08/12 04:17:07;;;;;;;5.00;3.95;;;;;;;16.40;100.00;91105.53;5031312;28;20037;-66
2022/08/12 04:19:33;;;;;;;5.68;4.00;;;;;;;16.31;100.00;91103.00;5020507;28;20037;-64
2022/08/12 04:22:00;;;;;;;8.75;4.72;;;;;;;16.21;100.00;91102.69;5030700;28;20029;-68
2022/08/12 04:24:26;;;;;;;5.50;4.20;;;;;;;16.12;100.00;91108.19;5031223;28;20029;-69
2022/08/12 04:26:52;;;;;;;6.07;4.50;;;;;;;16.08;100.00;91109.94;5030777;28;20025;-67
2022/08/12 04:29:21;;;;;;;7.15;4.90;;;;;;;16.09;100.00;91117.66;5030546;28;20120;-65
2022/08/12 04:31:48;;;;;;;8.75;4.60;;;;;;;16.10;100.00;91110.44;5030770;28;20028;-67
2022/08/12 04:34:15;;;;;;;6.72;4.82;;;;;;;16.01;100.00;91112.44;5030148;28;20030;-66
2022/08/12 04:36:41;;;;;;;5.70;4.30;;;;;;;15.91;100.00;91116.34;5029283;28;20071;-67
2022/08/12 04:39:09;;;;;;;9.27;5.00;;;;;;;15.97;100.00;91115.00;5030176;28;20033;-67
2022/08/12 04:41:39;;;;;;;6.85;5.03;;;;;;;16.03;100.00;91107.50;5030370;28;20018;-67
2022/08/12 04:44:06;;;;;;;8.23;5.60;;;;;;;15.97;100.00;91114.22;5027387;28;20091;-66
2022/08/12 04:46:32;;;;;;;7.82;4.78;;;;;;;16.03;100.00;91110.97;5031095;28;20025;-66
2022/08/12 04:48:59;;;;;;;8.23;5.30;;;;;;;16.09;100.00;91109.63;5031056;28;20056;-66
2022/08/12 04:51:25;;;;;;;6.90;5.28;;;;;;;16.12;100.00;91110.88;5030268;28;20042;-66
2022/08/12 04:53:51;;;;;;;7.40;5.00;;;;;;;16.11;100.00;91093.97;5030809;28;20495;-66
2022/08/12 04:56:18;;;;;;;8.10;4.80;;;;;;;16.24;100.00;91110.03;5030426;28;20056;-67
2022/08/12 04:58:43;;;;;;;8.30;5.07;;;;;;;16.32;100.00;91109.16;5029845;28;20395;-67
2022/08/12 05:01:09;;;;;;;9.07;6.40;;;;;;;16.35;100.00;91103.88;5030230;28;20506;-67
2022/08/12 05:03:36;;;;;;;8.77;5.72;;;;;;;16.38;100.00;91107.78;5030084;28;20025;-67
2022/08/12 05:06:04;;;;;;;8.57;5.68;;;;;;;16.40;100.00;91105.53;5029851;28;20025;-66
2022/08/12 05:08:29;;;;;;;7.93;5.78;;;;;;;16.39;100.00;91094.03;5031614;28;20025;-67
2022/08/12 05:10:56;;;;;;;8.48;6.32;;;;;;;16.44;100.00;91103.75;5034292;28;20032;-68
2022/08/12 05:13:26;;;;;;;9.45;6.22;;;;;;;16.50;100.00;91110.44;5033742;28;20060;-70
2022/08/12 05:15:52;;;;;;;11.27;6.90;;;;;;;16.51;100.00;91108.53;5033812;28;20164;-69
2022/08/12 05:18:18;;;;;;;13.88;7.20;;;;;;;16.47;100.00;91114.59;5034235;28;20160;-68
2022/08/12 05:20:43;;;;;;;8.65;6.18;;;;;;;16.54;100.00;91116.69;5033512;28;20458;-68
2022/08/12 05:23:17;;;;;;;7.28;5.57;;;;;;;16.55;100.00;91109.41;5034052;28;20101;-68
2022/08/12 05:25:43;;;;;;;;;;;;;;;16.60;100.00;91112.66;5034318;28;20017;-69
2022/08/12 05:28:12;;;;;;;13.32;7.47;;;;;;;16.53;100.00;91108.97;5033225;28;19913;-68
2022/08/12 05:30:37;;;;;;;12.43;7.28;;;;;;;16.38;100.00;91113.94;5033892;28;20025;-68
2022/08/12 05:33:04;;;;;;;9.52;6.50;;;;;;;16.43;100.00;91110.25;5033567;28;20025;-69
2022/08/12 05:35:41;;;;;;;9.50;6.30;;;;;;;16.52;100.00;91112.78;5033207;28;20036;-69
2022/08/12 05:41:04;;;;;;;10.63;5.90;;;;;;;16.52;100.00;91116.25;5032670;28;20036;-70
2022/08/12 05:43:33;;;;;;;10.20;6.05;;;;;;;16.42;100.00;91116.75;5033059;28;20501;-69
2022/08/12 05:45:58;;;;;;;10.32;6.72;;;;;;;16.38;100.00;91116.63;5033624;28;20030;-69
2022/08/12 05:48:24;;;;;;;9.95;7.25;;;;;;;16.46;100.00;91115.72;5033494;28;20087;-68
2022/08/12 05:50:51;;;;;;;12.13;6.70;;;;;;;16.52;100.00;91112.78;5032984;28;20022;-70
2022/08/12 05:53:16;;;;;;;8.57;6.50;;;;;;;16.56;100.00;91119.03;5033072;28;20037;-69
2022/08/12 05:55:42;;;;;;;7.80;5.88;;;;;;;16.62;100.00;91117.69;5033224;28;20017;-70
2022/08/12 05:58:07;;;;;;;9.70;6.13;;;;;;;16.82;100.00;91116.75;5033059;28;20033;-68
2022/08/12 06:00:34;;;;;;;8.30;6.60;;;;;;;16.87;100.00;91115.72;5018840;28;20476;-67
2022/08/12 06:03:01;;;;;;;7.63;5.72;;;;;;;16.96;100.00;91116.38;5033014;28;20495;-68
2022/08/12 06:05:33;;;;;;;7.72;5.63;;;;;;;17.17;100.00;91122.31;5032310;28;20108;-67
2022/08/12 06:07:59;;;;;;;9.15;6.78;;;;;;;17.37;100.00;91109.81;5032814;28;20755;-66
2022/08/12 06:10:25;;;;;;;8.50;5.78;;;;;;;17.55;100.00;91116.41;5030273;28;20057;-66
2022/08/12 06:12:51;;;;;;;8.20;5.97;;;;;;;17.78;100.00;91108.53;5032253;28;20060;-66
2022/08/12 06:15:19;;;;;;;11.20;7.40;;;;;;;17.76;100.00;91116.19;5009238;28;20091;-66
2022/08/12 06:17:45;;;;;;;12.20;8.23;;;;;;;17.56;100.00;91115.28;5029770;28;20021;-67
2022/08/12 06:20:12;;;;;;;11.82;7.78;;;;;;;17.44;100.00;91120.72;5031799;28;20051;-67
2022/08/12 06:22:43;;;;;;;19.05;10.23;;;;;;;17.46;100.00;91126.53;5033214;28;20088;-66
2022/08/12 06:25:09;;;;;;;17.90;10.02;;;;;;;17.53;100.00;91118.66;5033277;28;20499;-66
2022/08/12 06:27:48;;;;;;;12.80;7.72;;;;;;;17.78;100.00;91130.06;5032866;28;20095;-67
2022/08/12 06:30:15;;;;;;;10.35;6.78;;;;;;;17.90;100.00;91123.81;5032938;28;20056;-67
2022/08/12 06:32:43;;;;;;;12.18;7.80;;;;;;;17.90;100.00;91119.22;5033281;28;20045;-67
2022/08/12 06:35:10;;;;;;;11.05;8.02;;;;;;;17.97;100.00;91132.06;5032604;28;20033;-67
2022/08/12 06:37:50;;;;;;;10.93;7.65;;;;;;;18.09;100.00;91118.50;5033149;28;20033;-66
2022/08/12 06:43:01;;;;;;;12.50;7.45;;;;;;;18.68;100.00;91119.47;5032279;28;20052;-68
2022/08/12 06:46:39;;;;;;;10.60;7.60;;;;;;;18.93;100.00;91109.94;5088549;27;20087;-71
2022/08/12 06:49:05;;;;;;;11.85;7.80;;;;;;;19.33;100.00;91109.59;5087797;28;20532;-65
2022/08/12 06:51:31;;;;;;;10.25;6.80;;;;;;;19.37;100.00;91115.81;5088443;28;20113;-68
2022/08/12 06:53:58;;;;;;;10.38;7.32;;;;;;;19.52;100.00;91108.75;5088084;28;20036;-69
2022/08/12 06:56:24;;;;;;;10.80;7.20;;;;;;;19.68;100.00;91101.38;5087881;28;20036;-68
2022/08/12 06:58:49;;;;;;;12.10;7.70;;;;;;;19.89;100.00;91110.97;5087941;28;20103;-67
2022/08/12 07:01:16;;;;;;;9.75;6.88;;;;;;;19.52;100.00;91100.66;5088189;28;20063;-67
2022/08/12 07:03:41;;;;;;;9.15;6.97;;;;;;;19.48;100.00;91107.16;5087708;28;20119;-67
2022/08/12 07:06:10;;;;;;;8.23;6.00;;;;;;;19.59;100.00;91105.47;5088105;28;20120;-67
2022/08/12 07:08:37;;;;;;;9.95;7.25;;;;;;;19.98;100.00;91108.81;5087811;28;20043;-68
2022/08/12 07:11:05;;;;;;;7.65;5.78;;;;;;;20.12;100.00;91106.34;5086245;28;20530;-69
2022/08/12 07:13:42;;;;;;;9.20;6.57;;;;;;;20.71;100.00;91110.31;5087609;28;20036;-69
2022/08/12 07:16:14;;;;;;;7.07;5.78;;;;;;;22.15;100.00;91103.41;5088089;28;20086;-68
2022/08/12 07:18:42;;;;;;;9.85;5.85;;;;;;;21.88;100.00;91094.63;5087331;28;20055;-68
2022/08/12 07:21:08;;;;;;;6.43;5.03;;;;;;;22.09;100.00;91099.47;5087679;28;20047;-67
2022/08/12 07:23:35;;;;;;;6.35;5.45;;;;;;;22.25;100.00;91091.91;5087747;28;20082;-67
2022/08/12 07:26:04;;;;;;;5.95;4.80;;;;;;;22.84;100.00;91095.38;5087203;28;20525;-67
2022/08/12 07:28:33;;;;;;;6.00;5.20;;;;;;;24.75;100.00;91091.50;5087349;28;20059;-67
2022/08/12 07:31:03;;;;;;;7.85;5.68;;;;;;;27.11;92.84;91086.25;5087645;28;20044;-68
2022/08/12 07:33:29;;;;;;;5.88;4.47;;;;;;;31.52;62.47;91087.47;5086993;28;20481;-68
2022/08/12 07:35:57;;;;;;;6.03;4.85;;;;;;;31.67;56.37;91094.13;5087569;28;20043;-68
2022/08/12 07:38:24;;;;;;;5.35;4.10;;;;;;;30.30;58.39;91097.16;5087547;28;20035;-68
2022/08/12 07:40:54;;;;;;;4.38;3.97;;;;;;;31.05;55.62;91089.88;5087035;28;20093;-68
2022/08/12 07:43:20;;;;;;;4.25;3.70;;;;;;;30.28;57.28;91088.56;5086973;28;20112;-68
2022/08/12 07:45:46;;;;;;;4.68;4.20;;;;;;;31.37;57.14;91084.34;5086927;28;20059;-68
2022/08/12 07:48:12;;;;;;;4.72;3.70;;;;;;;33.72;51.41;91092.84;5086889;28;20032;-68
2022/08/12 07:50:38;;;;;;;4.03;3.63;;;;;;;35.73;45.58;91090.91;5085933;28;20085;-68
2022/08/12 07:53:03;;;;;;;4.63;3.95;;;;;;;36.73;42.90;91089.97;5085447;28;20028;-68
2022/08/12 07:55:28;;;;;;;3.38;3.00;;;;;;;35.69;41.34;91082.00;5085827;28;20105;-68
2022/08/12 07:57:58;;;;;;;4.03;3.00;;;;;;;34.77;44.08;91092.09;5072910;28;20040;-68
2022/08/12 08:00:28;;;;;;;3.55;3.25;;;;;;;34.27;43.25;91087.72;5073163;28;20056;-66
2022/08/12 08:02:54;;;;;;;3.63;3.33;;;;;;;36.05;43.58;91081.22;5070398;28;20727;-66
2022/08/12 08:05:22;;;;;;;3.10;2.67;;;;;;;38.57;35.52;91095.00;5072816;28;20032;-66
2022/08/12 08:07:48;;;;;;;3.60;1.88;;;;;;;37.40;33.98;91080.44;5072712;28;20097;-66
2022/08/12 08:10:15;;;;;;;4.53;2.42;;;;;;;39.07;34.90;91086.72;5071793;28;20522;-67
2022/08/12 08:12:54;;;;;;;2.90;2.70;;;;;;;39.28;36.06;91091.06;5071605;28;20101;-64
2022/08/12 08:15:33;;;;;;;2.70;2.33;;;;;;;36.23;34.82;91094.25;5070462;28;20040;-64
2022/08/12 08:18:01;;;;;;;1.70;1.60;;;;;;;33.32;38.39;91076.88;5072164;28;20134;-65
2022/08/12 08:20:40;;;;;;;2.15;1.88;;;;;;;31.67;42.91;91079.59;5071839;28;20399;-64
2022/08/12 08:23:09;;;;;;;2.00;1.70;;;;;;;34.16;39.81;91082.59;5071030;28;20044;-65
2022/08/12 08:25:37;;;;;;;3.25;2.65;;;;;;;34.82;39.77;91086.72;5071312;28;20512;-67
2022/08/12 08:28:15;;;;;;;1.95;1.77;;;;;;;33.82;38.77;91084.19;5071978;28;20056;-62
2022/08/12 08:30:44;;;;;;;2.22;2.03;;;;;;;35.14;36.85;91087.44;5072701;28;20047;-62
2022/08/12 08:33:11;;;;;;;2.65;2.45;;;;;;;36.19;37.85;91082.56;5072664;28;20055;-62
2022/08/12 08:35:39;;;;;;;3.22;2.20;;;;;;;37.10;33.22;91079.50;5072933;28;20029;-62
2022/08/12 08:38:13;;;;;;;2.10;1.80;;;;;;;38.22;31.88;91081.78;5073033;28;20035;-63
2022/08/12 08:43:27;;;;;;;2.38;2.17;;;;;;;36.25;33.98;91077.94;5072597;28;20828;-64
2022/08/12 08:45:55;;;;;;;1.83;1.73;;;;;;;36.73;33.11;91078.88;5072262;28;20036;-62
2022/08/12 08:48:21;;;;;;;1.90;1.77;;;;;;;37.99;33.07;91074.25;5072004;28;20052;-63
2022/08/12 08:50:47;;;;;;;1.90;1.70;;;;;;;33.63;36.88;91069.50;5071170;28;20037;-66
2022/08/12 08:53:13;;;;;;;1.80;1.70;;;;;;;31.44;40.54;91058.63;5071604;28;20028;-66
2022/08/12 08:55:41;;;;;;;1.95;1.85;;;;;;;34.06;36.62;91067.19;5071106;28;20039;-66
2022/08/12 08:58:07;;;;;;;1.83;1.73;;;;;;;34.58;35.17;91063.63;5070660;28;20164;-67
2022/08/12 09:00:34;;;;;;;2.10;1.75;;;;;;;36.83;33.88;91069.31;5071485;28;20115;-63
2022/08/12 09:03:02;;;;;;;2.88;1.70;;;;;;;36.89;33.84;91074.97;5071904;28;20423;-62
2022/08/12 09:05:28;;;;;;;2.20;2.00;;;;;;;38.76;33.39;91076.88;5072260;28;20097;-62
2022/08/12 09:07:55;;;;;;;9.57;6.03;;;;;;;37.56;33.06;91079.22;5071659;28;20032;-63
2022/08/12 09:10:21;;;;;;;1.80;1.70;;;;;;;37.26;32.61;91072.00;5071608;28;20132;-63
2022/08/12 09:15:30;;;;;;;2.03;1.83;;;;;;;36.69;32.71;91066.44;5071487;28;20579;-63
2022/08/12 09:17:57;;;;;;;2.53;1.83;;;;;;;36.62;33.53;91069.56;5071661;28;20033;-63
2022/08/12 09:20:32;;;;;;;2.40;2.10;;;;;;;37.45;34.57;91065.13;5070502;28;20472;-62
2022/08/12 09:23:00;;;;;;;2.85;2.55;;;;;;;37.03;32.20;91065.19;5070424;28;20040;-63
2022/08/12 09:25:26;;;;;;;25.90;20.55;;;;;;;36.68;33.74;91062.88;5071656;28;20701;-62
2022/08/12 09:27:55;;;;;;;3.83;2.92;;;;;;;37.05;32.04;91063.50;5071407;28;20039;-63
2022/08/12 09:30:21;;;;;;;2.00;1.83;;;;;;;34.69;33.42;91058.44;5071815;28;20075;-63
2022/08/12 09:32:49;;;;;;;1.67;1.58;;;;;;;34.30;33.77;91064.72;5071426;28;20040;-63
2022/08/12 09:35:19;;;;;;;1.77;1.50;;;;;;;33.70;35.03;91057.44;5071469;28;20068;-63
2022/08/12 09:37:46;;;;;;;1.70;1.60;;;;;;;35.14;34.75;91059.78;5070355;28;20128;-62
2022/08/12 09:40:12;;;;;;;2.17;1.80;;;;;;;35.78;34.23;91057.06;5071216;28;20032;-62
2022/08/12 09:45:22;;;;;;;2.10;1.75;;;;;;;34.47;35.23;91061.28;5071466;28;20083;-63
2022/08/12 09:47:49;;;;;;;4.43;2.10;;;;;;;35.17;35.27;91055.34;5071032;28;20068;-63
2022/08/12 09:50:15;;;;;;;2.20;2.00;;;;;;;36.67;33.62;91063.34;5071651;28;20051;-63
2022/08/12 09:52:43;;;;;;;1.77;1.50;;;;;;;36.86;31.49;91056.50;5071601;28;20080;-64
2022/08/12 09:55:10;;;;;;;2.38;1.70;;;;;;;38.34;31.16;91052.16;5071365;28;20037;-64
2022/08/12 09:57:35;;;;;;;2.42;1.75;;;;;;;38.12;30.89;91049.75;5071842;28;20040;-64
2022/08/12 10:00:03;;;;;;;2.30;2.08;;;;;;;37.64;31.71;91037.97;5071235;28;20595;-64
2022/08/12 10:02:29;;;;;;;2.80;1.95;;;;;;;38.30;31.99;91055.13;5071364;28;20048;-64
2022/08/12 10:04:56;;;;;;;1.88;1.73;;;;;;;39.09;29.82;91046.03;5071413;28;20410;-64
2022/08/12 10:07:22;;;;;;;1.83;1.73;;;;;;;40.95;29.46;91046.78;5071415;28;20570;-64
2022/08/12 10:09:49;;;;;;;2.17;1.90;;;;;;;39.10;27.75;91042.00;5070913;28;20029;-64
2022/08/12 10:15:00;;;;;;;2.60;2.40;;;;;;;38.99;31.13;91024.38;5071624;28;20097;-64
2022/08/12 10:17:26;;;;;;;1.77;1.67;;;;;;;40.43;30.04;91019.00;5070853;28;20047;-64
2022/08/12 10:19:51;;;;;;;2.33;2.10;;;;;;;40.32;29.23;91019.63;5070955;28;20040;-64
2022/08/12 10:22:17;;;;;;;2.22;2.10;;;;;;;36.70;32.06;91023.59;5071329;28;20043;-64
2022/08/12 10:29:35;;;;;;;1.98;1.70;;;;;;;31.61;37.89;91021.63;5071024;28;20036;-64
2022/08/12 10:30:13;;;;;;;2.63;2.40;;;;;;;28.75;43.45;91015.63;5070738;28;20122;-65
2022/08/12 10:32:38;;;;;;;7.28;5.15;;;;;;;28.15;45.77;91011.13;5071392;28;20036;-65
2022/08/12 10:35:04;;;;;;;13.18;9.85;;;;;;;27.03;47.67;91016.53;5071068;28;20056;-65
2022/08/12 10:37:30;;;;;;;2.72;2.20;;;;;;;26.67;47.17;91005.22;5070373;28;20438;-63
2022/08/12 10:39:55;;;;;;;3.20;2.78;;;;;;;26.87;49.99;91008.09;5071005;28;20502;-66
2022/08/12 10:45:08;;;;;;;12.60;7.05;;;;;;;26.59;52.26;91005.66;5070507;28;20180;-65
2022/08/12 10:47:36;;;;;;;4.00;2.45;;;;;;;27.13;49.23;91003.91;5071224;28;20041;-65
2022/08/12 10:50:04;;;;;;;5.70;3.25;;;;;;;26.95;49.99;90998.63;5070602;28;20103;-65
2022/08/12 10:52:31;;;;;;;3.05;2.75;;;;;;;27.25;48.70;90991.69;5070776;28;20045;-65
2022/08/12 10:54:58;;;;;;;6.80;4.90;;;;;;;27.75;50.06;91000.00;5070898;28;20101;-65
2022/08/12 10:57:25;;;;;;;4.78;3.22;;;;;;;28.19;47.72;90995.44;5070855;28;20083;-65
2022/08/12 10:59:56;;;;;;;4.10;3.13;;;;;;;28.51;47.29;90992.19;5070654;28;20056;-65
2022/08/12 11:02:25;;;;;;;2.42;2.20;;;;;;;28.31;47.61;90998.38;5070491;28;20036;-65
2022/08/12 11:04:51;;;;;;;2.17;1.98;;;;;;;28.32;47.46;90994.44;5070769;28;20036;-65
2022/08/12 11:07:17;;;;;;;3.75;3.17;;;;;;;27.66;47.78;90991.56;5070326;28;20052;-65
2022/08/12 11:09:43;;;;;;;3.45;2.70;;;;;;;27.39;48.10;91000.47;5070605;28;20036;-65
2022/08/12 11:12:09;;;;;;;5.03;3.58;;;;;;;26.80;50.26;90989.06;5070783;28;20115;-64
2022/08/12 11:14:37;;;;;;;3.00;2.28;;;;;;;27.88;47.80;90981.06;5070295;28;20166;-65
2022/08/12 11:17:10;;;;;;;2.45;2.25;;;;;;;27.90;46.41;90982.19;5070683;28;20045;-64
2022/08/12 11:19:38;;;;;;;2.80;2.33;;;;;;;27.33;46.91;90979.50;5070606;28;20134;-64
2022/08/12 11:22:05;;;;;;;3.13;2.30;;;;;;;27.29;48.43;90984.22;5070309;28;20048;-65
2022/08/12 11:24:30;;;;;;;2.58;2.30;;;;;;;27.03;48.43;90980.25;5070563;28;20051;-65
2022/08/12 11:26:57;;;;;;;3.67;2.50;;;;;;;27.36;48.49;90979.44;5070498;28;20032;-65
2022/08/12 11:29:25;;;;;;;3.80;2.33;;;;;;;27.10;49.06;90977.44;5070129;28;20055;-64
2022/08/12 11:31:51;;;;;;;2.47;2.28;;;;;;;26.69;48.91;90975.56;5071742;28;20041;-65
2022/08/12 11:34:17;;;;;;;2.25;2.05;;;;;;;26.47;50.38;90980.44;5074348;28;20044;-65
2022/08/12 11:36:55;;;;;;;2.45;2.25;;;;;;;25.88;54.18;90988.75;5073853;28;20047;-65
2022/08/12 11:39:21;;;;;;;2.45;2.25;;;;;;;25.97;55.04;90978.13;5073983;28;20052;-65
2022/08/12 11:41:47;;;;;;;2.55;2.35;;;;;;;25.73;55.82;90981.84;5074614;28;20056;-65
2022/08/12 11:44:13;;;;;;;5.00;4.13;;;;;;;24.96;57.52;90984.56;5073475;28;20079;-65
2022/08/12 11:46:41;;;;;;;3.08;2.50;;;;;;;24.60;59.44;90986.59;5073911;28;20044;-65
2022/08/12 11:49:07;;;;;;;6.07;4.45;;;;;;;23.99;63.19;90991.38;5072562;28;20411;-65
2022/08/12 11:51:33;;;;;;;3.35;2.80;;;;;;;23.38;71.44;90982.38;5073529;28;20528;-65
2022/08/12 11:54:00;;;;;;;5.00;3.40;;;;;;;22.96;82.28;90983.81;5073739;28;20029;-65
2022/08/12 11:56:25;;;;;;;3.88;2.80;;;;;;;22.57;86.39;90985.59;5073889;28;20510;-67
2022/08/12 11:58:51;;;;;;;3.22;2.65;;;;;;;22.49;88.59;90981.28;5073400;28;20041;-65
2022/08/12 12:01:16;;;;;;;3.95;2.83;;;;;;;22.40;91.61;90978.91;5073748;28;20033;-65
2022/08/12 12:03:42;;;;;;;3.15;2.80;;;;;;;22.32;93.17;90991.66;5073705;28;20086;-66
2022/08/12 12:06:08;;;;;;;3.40;2.72;;;;;;;21.82;94.28;90983.16;5073199;28;20108;-65
2022/08/12 12:08:33;;;;;;;3.20;2.88;;;;;;;21.75;97.49;90985.81;5073340;28;20517;-65
2022/08/12 12:10:59;;;;;;;2.85;2.40;;;;;;;21.76;98.03;90984.66;5073654;28;20119;-66
2022/08/12 12:13:24;;;;;;;3.28;2.67;;;;;;;21.70;97.37;90982.69;5073560;28;20071;-65
2022/08/12 12:15:50;;;;;;;2.67;2.47;;;;;;;21.68;97.53;90977.66;5073023;28;20036;-65
2022/08/12 12:18:27;;;;;;;3.20;2.90;;;;;;;21.78;98.11;90971.53;5073156;28;20036;-65
2022/08/12 12:20:55;;;;;;;2.65;2.15;;;;;;;21.71;99.65;90965.28;5073447;28;20045;-65
2022/08/12 12:23:21;;;;;;;2.60;2.40;;;;;;;21.76;100.00;90960.28;5073311;28;20418;-64
2022/08/12 12:25:46;;;;;;;2.60;2.40;;;;;;;21.56;100.00;90966.31;5073339;28;20048;-66
2022/08/12 12:28:12;;;;;;;2.50;2.25;;;;;;;21.59;100.00;90966.34;5072596;28;20071;-65
2022/08/12 12:30:38;;;;;;;3.95;2.78;;;;;;;21.65;100.00;90970.28;5072685;28;20502;-66
2022/08/12 12:33:06;;;;;;;4.13;2.97;;;;;;;21.47;100.00;90962.00;5073189;28;20033;-66
2022/08/12 12:35:32;;;;;;;3.25;2.67;;;;;;;21.46;100.00;90976.69;5073082;28;20040;-66
2022/08/12 12:37:59;;;;;;;4.30;2.80;;;;;;;21.23;100.00;90970.66;5072697;28;20040;-66
2022/08/12 12:40:26;;;;;;;3.35;2.90;;;;;;;21.41;100.00;90968.91;5072499;28;20614;-66
2022/08/12 12:42:52;;;;;;;3.33;2.85;;;;;;;21.25;100.00;90954.84;5072641;28;20057;-66
2022/08/12 12:45:19;;;;;;;4.93;2.90;;;;;;;21.31;100.00;90956.06;5072331;28;20403;-65
2022/08/12 12:48:01;;;;;;;4.78;3.15;;;;;;;21.40;100.00;90955.75;5072933;28;20573;-64
2022/08/12 12:50:33;;;;;;;3.30;3.00;;;;;;;21.73;100.00;90946.72;5072220;28;20094;-64
2022/08/12 12:52:59;;;;;;;3.70;3.17;;;;;;;21.81;100.00;90949.13;5072249;28;20402;-65
2022/08/12 12:55:26;;;;;;;3.70;3.05;;;;;;;21.87;100.00;90956.88;5072948;28;20614;-65
2022/08/12 12:57:52;;;;;;;3.50;3.20;;;;;;;22.08;100.00;90951.63;5072364;28;20517;-64
2022/08/12 13:00:18;;;;;;;3.25;2.50;;;;;;;22.28;100.00;90944.78;5072022;28;20024;-63
2022/08/12 13:02:54;;;;;;;3.95;3.08;;;;;;;22.46;100.00;90927.81;5072848;28;20040;-63
2022/08/12 13:05:37;;;;;;;3.10;2.80;;;;;;;23.74;97.77;90938.97;5072323;28;20101;-63
2022/08/12 13:08:23;;;;;;;4.30;2.60;;;;;;;23.54;94.59;90942.06;5072461;28;20093;-64
2022/08/12 13:10:49;;;;;;;2.55;2.35;;;;;;;23.53;97.10;90935.06;5072448;28;20032;-64
2022/08/12 13:13:17;;;;;;;2.90;2.60;;;;;;;23.36;98.26;90935.06;5071991;28;20071;-63
2022/08/12 13:15:43;;;;;;;6.53;3.92;;;;;;;22.81;100.00;90927.16;5072703;28;20063;-64
2022/08/12 13:18:08;;;;;;;3.08;2.78;;;;;;;22.34;100.00;90932.41;5072324;28;20494;-63
2022/08/12 13:20:34;;;;;;;6.53;2.70;;;;;;;22.22;100.00;90930.03;5071537;28;20037;-64